Springfield, OH (45503)

1:26 AM EDT on July 26, 2016 (GMT -0400)
Springfield OH | | Change Station

Elev 1040 ft 39.98 °N, 83.78 °W | Updated 13 minutes ago

Clear
Clear
74.0 °F
Feels Like 73 °F
N
0.0
Wind Variable Wind from WNW
Gusts 1.0 mph

Today
High -- | Low -- °F
--% Chance of Precip.
Yesterday
High -- | Low -- °F
Precip. -- in
Pressure 29.99 in
Visibility 10.0 miles
Clouds Clear
Heat Index 73 °F
Dew Point 70 °F
Humidity 88%
Rainfall 0.00 in
Snow Depth Not available.
6:28 AM 8:54 PM
Waning Gibbous, 58% visible
METAR KSGH 260456Z AUTO 32003KT 10SM CLR 24/22 A3003 RMK AO2 SLP156 T02440217 403220233
Pressure 29.99 in
Visibility 10.0 miles
Clouds Clear
Heat Index 73 °F
Dew Point 70 °F
Humidity 88%
Rainfall 0.00 in
Snow Depth Not available.
6:28 AM 8:54 PM
Waning Gibbous, 58% visible
METAR KSGH 260456Z AUTO 32003KT 10SM CLR 24/22 A3003 RMK AO2 SLP156 T02440217 403220233

10-Day Weather Forecast

Almanac

Astronomy

Jul. 26, 2016 Rise Set
Actual Time
Civil Twilight
Nautical Twilight
Astronomical Twilight
Moon
Length of Visible Light
Length of Day
Tomorrow will be .
, % of the Moon is Illuminated

Today's Extremes

State Highs State Lows

Community

WunderPhotos

Upload Photos

1,927,538 photos uploaded!

WunderBlog® & News

Nearby

Air Quality

  Air Quality AQ Index Pollutant
Not available.

Snow Depth

Station Depth Elevation

Earthquake Activity

City Distance Mag. Time & Date
Minimum magnitude displayed is 2.5.

Coastal Water Temperatures

Place Temperature

Stations

Nearby Weather Stations

Station Location Temp. Windchill Dew Point Humidity Wind Precip. Elev Updated Type
                   

Watches & Warnings

There are currently no watches in effect.